createdAt,value
2022-10-22T00:02:33.455Z,12.91
2022-10-22T00:05:30.336Z,12.80
2022-10-22T00:08:27.291Z,12.82
2022-10-22T00:11:24.162Z,12.81
2022-10-22T00:14:21.015Z,12.73
2022-10-22T00:17:18.520Z,12.80
2022-10-22T00:20:15.907Z,12.81
2022-10-22T00:23:12.770Z,12.82
2022-10-22T00:26:10.864Z,12.98
2022-10-22T00:29:07.727Z,12.93
2022-10-22T00:32:06.405Z,12.89
2022-10-22T00:35:04.032Z,12.81
2022-10-22T00:38:00.886Z,12.76
2022-10-22T00:40:57.828Z,12.86
2022-10-22T00:44:00.739Z,12.76
2022-10-22T00:46:57.629Z,12.75
2022-10-22T00:49:56.216Z,12.73
2022-10-22T00:52:54.456Z,12.68
2022-10-22T00:55:54.433Z,12.70
2022-10-22T00:58:59.619Z,12.70
2022-10-22T01:01:56.514Z,12.64
2022-10-22T01:04:53.493Z,12.74
2022-10-22T01:07:53.334Z,12.68
2022-10-22T01:11:39.411Z,12.69
2022-10-22T01:15:15.249Z,12.71
2022-10-22T01:18:14.706Z,12.65
2022-10-22T01:21:22.598Z,12.60
2022-10-22T01:24:56.274Z,12.62
2022-10-22T01:27:57.358Z,12.61
2022-10-22T01:30:59.324Z,12.63
2022-10-22T01:33:58.489Z,12.57
2022-10-22T01:36:57.504Z,12.60
2022-10-22T01:39:56.089Z,12.62
2022-10-22T01:43:01.154Z,12.74
2022-10-22T01:46:02.411Z,12.63
2022-10-22T01:49:36.688Z,12.61
2022-10-22T01:52:45.823Z,12.62
2022-10-22T01:55:56.199Z,12.55
2022-10-22T01:59:07.405Z,12.55
2022-10-22T02:02:28.039Z,12.61
2022-10-22T02:05:51.656Z,12.61
2022-10-22T02:08:51.556Z,12.58
2022-10-22T02:11:50.461Z,12.59
2022-10-22T02:14:50.629Z,12.56
2022-10-22T02:17:48.386Z,12.61
2022-10-22T02:20:45.471Z,12.57
2022-10-22T02:23:42.449Z,12.56
2022-10-22T02:27:12.115Z,12.53
2022-10-22T02:33:24.419Z,12.64
2022-10-22T02:36:23.781Z,12.59
2022-10-22T02:39:21.819Z,12.55
2022-10-22T02:42:18.783Z,12.61
2022-10-22T02:45:17.959Z,12.59
2022-10-22T02:48:14.902Z,12.53
2022-10-22T02:51:12.402Z,12.49
2022-10-22T02:54:09.316Z,12.56
2022-10-22T02:57:06.304Z,12.57
2022-10-22T03:00:05.978Z,12.65
2022-10-22T03:03:02.936Z,12.56
2022-10-22T03:05:59.829Z,12.54
2022-10-22T03:08:57.605Z,12.49
2022-10-22T03:11:54.776Z,12.57
2022-10-22T03:14:51.661Z,12.50
2022-10-22T03:17:48.526Z,12.45
2022-10-22T03:20:45.416Z,12.45
2022-10-22T03:23:43.569Z,12.35
2022-10-22T03:26:43.146Z,12.38
2022-10-22T03:29:40.975Z,12.33
2022-10-22T03:32:37.832Z,12.46
2022-10-22T03:35:44.534Z,12.44
2022-10-22T03:38:41.788Z,12.33
2022-10-22T03:41:38.727Z,12.33
2022-10-22T03:44:38.251Z,12.37
2022-10-22T03:47:36.687Z,12.31
2022-10-22T03:50:33.513Z,12.24
2022-10-22T03:53:30.348Z,12.23
2022-10-22T03:56:27.320Z,12.21
2022-10-22T03:59:24.236Z,12.10
2022-10-22T04:02:21.636Z,12.15
2022-10-22T04:05:18.498Z,12.12
2022-10-22T04:08:15.326Z,12.11
2022-10-22T04:11:14.599Z,12.08
2022-10-22T04:14:12.201Z,12.08
2022-10-22T04:17:09.052Z,12.06
2022-10-22T04:20:06.659Z,12.02
2022-10-22T04:23:03.475Z,12.06
2022-10-22T04:26:03.147Z,12.05
2022-10-22T04:28:59.965Z,11.99
2022-10-22T04:31:56.856Z,12.01
2022-10-22T04:34:53.754Z,11.95
2022-10-22T04:37:50.614Z,11.98
2022-10-22T04:40:47.429Z,11.90
2022-10-22T04:43:44.898Z,11.87
2022-10-22T04:46:41.882Z,11.84
2022-10-22T04:49:38.731Z,11.79
2022-10-22T04:52:35.570Z,11.80
2022-10-22T04:55:32.511Z,11.81
2022-10-22T04:58:29.371Z,11.81
2022-10-22T05:01:39.912Z,11.78
2022-10-22T05:04:39.918Z,11.70
2022-10-22T05:07:36.772Z,11.73
2022-10-22T05:10:33.625Z,11.74
2022-10-22T05:13:30.449Z,11.69
2022-10-22T05:16:29.588Z,11.67
2022-10-22T05:19:32.123Z,11.64
2022-10-22T05:22:28.914Z,11.68
2022-10-22T05:25:25.791Z,11.63
2022-10-22T05:28:22.724Z,11.58
2022-10-22T05:31:20.413Z,11.60
2022-10-22T05:34:17.519Z,11.54
2022-10-22T05:37:14.589Z,11.51
2022-10-22T05:40:26.670Z,11.56
2022-10-22T05:43:27.460Z,11.54
2022-10-22T05:46:28.408Z,11.52
2022-10-22T05:49:25.239Z,11.38
2022-10-22T05:52:22.066Z,11.44
2022-10-22T05:55:18.970Z,11.47
2022-10-22T05:58:15.828Z,11.46
2022-10-22T06:01:25.812Z,11.37
2022-10-22T06:04:22.741Z,11.38
2022-10-22T06:07:19.591Z,11.45
2022-10-22T06:10:20.912Z,11.47
2022-10-22T06:13:17.712Z,11.52
2022-10-22T06:16:15.062Z,11.47
2022-10-22T06:19:14.520Z,11.43
2022-10-22T06:22:11.516Z,11.40
2022-10-22T06:25:08.985Z,11.50
2022-10-22T06:28:05.957Z,11.53
2022-10-22T06:31:05.106Z,11.54
2022-10-22T06:34:02.696Z,11.58
2022-10-22T06:37:01.950Z,11.50
2022-10-22T06:39:58.824Z,11.53
2022-10-22T06:42:55.640Z,11.51
2022-10-22T06:45:52.470Z,11.56
2022-10-22T06:48:51.041Z,11.54
2022-10-22T06:51:55.328Z,11.53
2022-10-22T06:54:52.221Z,11.69
2022-10-22T06:57:49.028Z,11.75
2022-10-22T07:00:45.871Z,11.63
2022-10-22T07:03:42.886Z,11.51
2022-10-22T07:06:39.812Z,11.64
2022-10-22T07:09:36.642Z,11.81
2022-10-22T07:12:34.223Z,11.78
2022-10-22T07:15:31.213Z,11.87
2022-10-22T07:18:28.075Z,12.01
2022-10-22T07:21:26.130Z,12.02
2022-10-22T07:24:23.294Z,12.00
2022-10-22T07:27:20.150Z,12.02
2022-10-22T07:30:17.097Z,12.00
2022-10-22T07:33:14.354Z,11.90
2022-10-22T07:36:17.588Z,11.97
2022-10-22T07:39:14.598Z,12.09
2022-10-22T07:42:11.434Z,12.15
2022-10-22T07:45:08.947Z,12.27
2022-10-22T07:48:06.408Z,12.16
2022-10-22T07:51:04.223Z,12.22
2022-10-22T07:54:01.103Z,12.32
2022-10-22T07:56:59.366Z,12.34
2022-10-22T07:59:58.108Z,12.24
2022-10-22T08:02:54.950Z,12.32
2022-10-22T08:05:52.738Z,12.24
2022-10-22T08:08:49.745Z,12.34
2022-10-22T08:11:46.981Z,12.49
2022-10-22T08:14:43.912Z,12.40
2022-10-22T08:17:41.039Z,12.28
2022-10-22T08:20:38.078Z,12.27
2022-10-22T08:23:35.338Z,12.34
2022-10-22T08:26:32.484Z,12.46
2022-10-22T08:29:30.188Z,12.80
2022-10-22T08:35:28.745Z,12.51
2022-10-22T08:38:25.603Z,12.63
2022-10-22T08:41:24.000Z,12.49
2022-10-22T08:44:35.670Z,12.89
2022-10-22T08:47:47.834Z,12.86
2022-10-22T08:50:49.784Z,13.09
2022-10-22T08:54:12.414Z,12.64
2022-10-22T08:57:09.166Z,12.73
2022-10-22T09:00:52.978Z,12.68
2022-10-22T09:04:00.503Z,12.62
2022-10-22T09:06:59.973Z,12.68
2022-10-22T09:09:59.680Z,12.58
2022-10-22T09:12:56.615Z,12.73
2022-10-22T09:16:14.060Z,12.67
2022-10-22T09:19:50.575Z,12.76
2022-10-22T09:23:13.439Z,12.84
2022-10-22T09:26:15.487Z,13.00
2022-10-22T09:29:24.483Z,12.87
2022-10-22T09:32:22.215Z,12.99
2022-10-22T09:35:24.403Z,12.79
2022-10-22T09:38:27.268Z,12.82
2022-10-22T09:41:30.036Z,12.79
2022-10-22T09:44:26.920Z,12.82
2022-10-22T09:47:43.157Z,12.90
2022-10-22T09:50:59.006Z,12.66
2022-10-22T09:54:01.894Z,12.80
2022-10-22T09:57:05.597Z,12.91
2022-10-22T10:00:02.464Z,12.89
2022-10-22T10:03:00.328Z,12.87
2022-10-22T10:06:05.850Z,12.98
2022-10-22T10:09:06.590Z,12.93
2022-10-22T10:12:24.706Z,13.10
2022-10-22T10:16:09.453Z,13.40
2022-10-22T10:19:12.111Z,13.41
2022-10-22T10:22:44.887Z,13.57
2022-10-22T10:26:01.516Z,13.76
2022-10-22T10:29:13.851Z,13.50
2022-10-22T10:32:27.743Z,13.46
2022-10-22T10:36:06.723Z,14.80
2022-10-22T10:39:25.768Z,14.41
2022-10-22T10:42:41.468Z,13.99
2022-10-22T10:46:02.355Z,13.88
2022-10-22T10:49:23.380Z,13.89
2022-10-22T10:53:02.319Z,14.04
2022-10-22T10:56:23.802Z,13.87
2022-10-22T10:59:35.937Z,13.72
2022-10-22T11:03:02.160Z,13.89
2022-10-22T11:06:12.172Z,13.71
2022-10-22T11:09:27.884Z,13.65
2022-10-22T11:12:34.158Z,13.75
2022-10-22T11:15:39.923Z,13.69
2022-10-22T11:18:47.633Z,13.76
2022-10-22T11:22:17.042Z,14.07
2022-10-22T11:25:13.821Z,13.91
2022-10-22T11:28:37.338Z,13.95
2022-10-22T11:31:34.513Z,14.11
2022-10-22T11:34:41.796Z,14.23
2022-10-22T11:37:39.782Z,15.24
2022-10-22T11:41:02.336Z,15.95
2022-10-22T11:44:11.794Z,14.97
2022-10-22T11:47:24.432Z,15.17
2022-10-22T11:50:25.477Z,15.35
2022-10-22T11:53:39.075Z,15.20
2022-10-22T11:56:39.414Z,15.08
2022-10-22T11:59:47.933Z,14.77
2022-10-22T12:02:45.925Z,14.44
2022-10-22T12:05:45.129Z,14.38
2022-10-22T12:08:57.033Z,14.28
2022-10-22T12:11:55.399Z,14.52
2022-10-22T12:14:58.300Z,14.61
2022-10-22T12:18:05.785Z,14.86
2022-10-22T12:21:02.926Z,14.65
2022-10-22T12:24:02.706Z,14.76
2022-10-22T12:26:59.585Z,15.12
2022-10-22T12:30:01.964Z,15.70
2022-10-22T12:33:01.856Z,14.94
2022-10-22T12:36:04.029Z,15.00
2022-10-22T12:39:14.832Z,14.61
2022-10-22T12:42:16.682Z,15.05
2022-10-22T12:45:13.506Z,15.43
2022-10-22T12:48:28.378Z,15.90
2022-10-22T12:51:25.557Z,16.38
2022-10-22T12:54:30.958Z,16.43
2022-10-22T12:57:28.147Z,17.35
2022-10-22T13:00:32.373Z,17.15
2022-10-22T13:03:40.161Z,17.79
2022-10-22T13:06:37.131Z,18.06
2022-10-22T13:09:46.405Z,17.71
2022-10-22T13:12:49.432Z,17.40
2022-10-22T13:15:46.332Z,15.91
2022-10-22T13:18:44.903Z,15.68
2022-10-22T13:21:41.729Z,15.41
2022-10-22T13:24:49.975Z,15.55
2022-10-22T13:27:54.763Z,15.48
2022-10-22T13:31:11.420Z,16.08
2022-10-22T13:34:17.317Z,15.96
2022-10-22T13:37:14.211Z,16.01
2022-10-22T13:40:14.449Z,15.79
2022-10-22T13:43:11.319Z,16.15
2022-10-22T13:46:09.552Z,15.87
2022-10-22T13:49:06.488Z,15.55
2022-10-22T13:52:04.141Z,15.58
2022-10-22T13:55:01.500Z,15.62
2022-10-22T13:58:06.370Z,15.27
2022-10-22T14:01:08.642Z,15.45
2022-10-22T14:04:10.560Z,15.21
2022-10-22T14:07:17.530Z,15.13
2022-10-22T14:10:22.563Z,15.30
2022-10-22T14:13:21.051Z,15.30
2022-10-22T14:16:27.528Z,15.33
2022-10-22T14:19:24.681Z,15.41
2022-10-22T14:22:23.627Z,15.30
2022-10-22T14:25:24.596Z,15.50
2022-10-22T14:28:21.483Z,15.49
2022-10-22T14:31:18.369Z,15.62
2022-10-22T14:34:16.719Z,15.28
2022-10-22T14:37:20.289Z,15.10
2022-10-22T14:40:20.396Z,15.18
2022-10-22T14:43:25.718Z,15.30
2022-10-22T14:46:23.022Z,15.07
2022-10-22T14:49:19.835Z,14.90
2022-10-22T14:52:16.689Z,14.74
2022-10-22T14:55:15.955Z,14.78
2022-10-22T14:58:12.984Z,14.70
2022-10-22T15:01:10.463Z,14.60
2022-10-22T15:04:08.612Z,14.43
2022-10-22T15:07:05.705Z,14.45
2022-10-22T15:10:02.928Z,14.40
2022-10-22T15:12:59.944Z,14.24
2022-10-22T15:15:58.005Z,14.13
2022-10-22T15:18:54.992Z,14.05
2022-10-22T15:21:54.967Z,13.73
2022-10-22T15:24:53.587Z,13.71
2022-10-22T15:27:51.827Z,13.73
2022-10-22T15:30:59.986Z,13.51
2022-10-22T15:34:01.532Z,13.57
2022-10-22T15:37:02.328Z,13.49
2022-10-22T15:40:00.605Z,13.46
2022-10-22T15:42:57.475Z,13.43
2022-10-22T15:46:11.260Z,13.28
2022-10-22T15:49:08.386Z,13.47
2022-10-22T15:52:09.781Z,13.38
2022-10-22T15:58:13.121Z,13.26
2022-10-22T16:01:13.880Z,13.27
2022-10-22T16:04:11.602Z,13.22
2022-10-22T16:07:08.429Z,13.18
2022-10-22T16:10:07.619Z,13.15
2022-10-22T16:13:05.023Z,13.20
2022-10-22T16:16:07.500Z,13.15
2022-10-22T16:19:04.363Z,13.27
2022-10-22T16:22:02.368Z,13.12
2022-10-22T16:24:59.279Z,13.06
2022-10-22T16:27:56.222Z,13.07
2022-10-22T16:30:53.045Z,13.00
2022-10-22T16:33:50.351Z,12.94
2022-10-22T16:36:48.868Z,12.92
2022-10-22T16:39:46.387Z,12.91
2022-10-22T16:42:44.368Z,12.84
2022-10-22T16:45:50.634Z,12.73
2022-10-22T16:48:50.779Z,12.83
2022-10-22T16:51:47.644Z,12.82
2022-10-22T16:54:46.587Z,12.78
2022-10-22T16:57:43.720Z,12.73
2022-10-22T17:00:41.156Z,12.77
2022-10-22T17:03:38.217Z,12.63
2022-10-22T17:06:35.091Z,12.63
2022-10-22T17:09:32.017Z,12.67
2022-10-22T17:12:35.082Z,12.74
2022-10-22T17:15:32.627Z,12.68
2022-10-22T17:18:30.185Z,12.65
2022-10-22T17:21:27.117Z,12.65
2022-10-22T17:24:23.972Z,12.47
2022-10-22T17:27:20.785Z,12.55
2022-10-22T17:30:23.435Z,12.54
2022-10-22T17:33:23.359Z,12.35
2022-10-22T17:36:22.210Z,12.35
2022-10-22T17:39:19.070Z,12.33
2022-10-22T17:42:15.935Z,12.42
2022-10-22T17:45:12.853Z,12.31
2022-10-22T17:48:09.726Z,12.35
2022-10-22T17:51:12.495Z,12.32
2022-10-22T17:54:10.191Z,12.28
2022-10-22T17:57:07.795Z,12.28
2022-10-22T18:00:06.231Z,12.19
2022-10-22T18:03:03.249Z,12.19
2022-10-22T18:06:10.548Z,12.13
2022-10-22T18:09:13.245Z,12.10
2022-10-22T18:12:13.813Z,12.04
2022-10-22T18:15:10.931Z,11.83
2022-10-22T18:18:07.773Z,11.69
2022-10-22T18:21:05.410Z,11.61
2022-10-22T18:24:02.478Z,11.50
2022-10-22T18:26:59.285Z,11.48
2022-10-22T18:29:56.104Z,11.35
2022-10-22T18:32:52.968Z,11.28
2022-10-22T18:35:52.129Z,11.25
2022-10-22T18:38:55.095Z,11.11
2022-10-22T18:41:53.144Z,11.09
2022-10-22T18:44:51.440Z,11.01
2022-10-22T18:47:48.477Z,10.95
2022-10-22T18:50:47.202Z,10.94
2022-10-22T18:53:53.731Z,10.88
2022-10-22T18:57:03.255Z,10.80
2022-10-22T19:00:00.239Z,10.70
2022-10-22T19:02:57.076Z,10.74
2022-10-22T19:05:56.323Z,10.56
2022-10-22T19:08:54.255Z,10.54
2022-10-22T19:11:51.399Z,10.58
2022-10-22T19:14:48.879Z,10.46
2022-10-22T19:17:45.826Z,10.66
2022-10-22T19:20:46.342Z,10.50
2022-10-22T19:26:48.677Z,10.28
2022-10-22T19:29:46.150Z,10.27
2022-10-22T19:32:43.334Z,10.27
2022-10-22T19:35:40.306Z,10.20
2022-10-22T19:38:46.277Z,10.15
2022-10-22T19:41:43.809Z,10.08
2022-10-22T19:44:40.673Z,10.09
2022-10-22T19:47:37.546Z,10.22
2022-10-22T19:50:35.149Z,10.20
2022-10-22T19:53:33.583Z,10.05
2022-10-22T19:56:31.793Z,10.12
2022-10-22T19:59:31.395Z,9.99
2022-10-22T20:02:29.112Z,10.01
2022-10-22T20:05:26.055Z,9.97
2022-10-22T20:08:22.884Z,10.06
2022-10-22T20:11:26.563Z,10.08
2022-10-22T20:14:23.497Z,9.98
2022-10-22T20:17:20.342Z,9.92
2022-10-22T20:20:17.206Z,9.89
2022-10-22T20:23:14.222Z,9.92
2022-10-22T20:26:12.667Z,9.78
2022-10-22T20:29:12.955Z,9.66
2022-10-22T20:32:09.783Z,9.66
2022-10-22T20:35:07.752Z,9.72
2022-10-22T20:38:07.035Z,9.62
2022-10-22T20:41:07.831Z,9.72
2022-10-22T20:44:04.680Z,9.80
2022-10-22T20:47:01.757Z,9.63
2022-10-22T20:49:58.609Z,9.71
2022-10-22T20:52:55.477Z,9.68
2022-10-22T20:55:56.802Z,9.58
2022-10-22T20:59:04.034Z,9.61
2022-10-22T21:02:01.135Z,9.54
2022-10-22T21:04:57.989Z,9.60
2022-10-22T21:07:54.820Z,9.55
2022-10-22T21:10:51.660Z,9.50
2022-10-22T21:13:48.880Z,9.47
2022-10-22T21:16:51.861Z,9.49
2022-10-22T21:19:48.694Z,9.31
2022-10-22T21:22:45.872Z,9.33
2022-10-22T21:25:56.366Z,9.31
2022-10-22T21:28:53.283Z,9.37
2022-10-22T21:31:50.199Z,9.18
2022-10-22T21:34:47.016Z,9.10
2022-10-22T21:37:44.305Z,9.11
2022-10-22T21:40:41.270Z,9.01
2022-10-22T21:43:40.059Z,9.08
2022-10-22T21:46:37.713Z,9.08
2022-10-22T21:49:34.541Z,9.02
2022-10-22T21:52:31.392Z,9.11
2022-10-22T21:55:28.214Z,9.08
2022-10-22T21:58:25.037Z,9.04
2022-10-22T22:01:22.777Z,8.99
2022-10-22T22:04:19.630Z,9.01
2022-10-22T22:07:16.472Z,8.89
2022-10-22T22:10:13.589Z,8.89
2022-10-22T22:13:10.390Z,8.93
2022-10-22T22:16:11.732Z,8.94
2022-10-22T22:19:10.063Z,8.76
2022-10-22T22:22:07.071Z,8.66
2022-10-22T22:25:04.372Z,8.66
2022-10-22T22:28:01.210Z,8.72
2022-10-22T22:30:59.630Z,8.67
2022-10-22T22:34:03.195Z,8.73
2022-10-22T22:37:00.007Z,8.59
2022-10-22T22:39:56.923Z,8.53
2022-10-22T22:42:53.719Z,8.57
2022-10-22T22:46:11.518Z,8.60
2022-10-22T22:49:08.982Z,8.37
2022-10-22T22:52:05.896Z,8.47
2022-10-22T22:55:02.845Z,8.27
2022-10-22T22:57:59.655Z,8.37
2022-10-22T23:00:56.562Z,8.32
2022-10-22T23:04:16.391Z,8.32
2022-10-22T23:07:13.476Z,8.25
2022-10-22T23:10:10.391Z,8.26
2022-10-22T23:13:07.207Z,8.20
2022-10-22T23:16:12.359Z,8.27
2022-10-22T23:19:10.159Z,8.40
2022-10-22T23:22:07.034Z,8.29
2022-10-22T23:25:04.095Z,8.25
2022-10-22T23:28:01.004Z,8.30
2022-10-22T23:30:57.928Z,8.29
2022-10-22T23:33:54.784Z,8.15
2022-10-22T23:36:52.868Z,8.19
2022-10-22T23:39:49.925Z,8.14
2022-10-22T23:42:46.817Z,8.23
2022-10-22T23:45:43.657Z,8.31
2022-10-22T23:48:40.624Z,8.22
2022-10-22T23:51:39.193Z,8.15
2022-10-22T23:54:36.051Z,8.18
2022-10-22T23:57:32.895Z,8.25
